sensor_id;sensor_type;location;lat;lon;timestamp;P1;durP1;ratioP1;P2;durP2;ratioP2
31537;SDS011;18147;51.952;6.146;2022-12-24T00:02:24;27.13;;;4.80;;
31537;SDS011;18147;51.952;6.146;2022-12-24T00:04:51;24.75;;;4.05;;
31537;SDS011;18147;51.952;6.146;2022-12-24T00:07:16;35.38;;;5.00;;
31537;SDS011;18147;51.952;6.146;2022-12-24T00:09:42;34.72;;;4.22;;
31537;SDS011;18147;51.952;6.146;2022-12-24T00:12:07;37.70;;;6.43;;
31537;SDS011;18147;51.952;6.146;2022-12-24T00:14:32;32.63;;;6.55;;
31537;SDS011;18147;51.952;6.146;2022-12-24T00:16:58;38.17;;;5.97;;
31537;SDS011;18147;51.952;6.146;2022-12-24T00:19:23;31.38;;;6.88;;
31537;SDS011;18147;51.952;6.146;2022-12-24T00:21:49;46.92;;;7.25;;
31537;SDS011;18147;51.952;6.146;2022-12-24T00:24:14;23.50;;;4.47;;
31537;SDS011;18147;51.952;6.146;2022-12-24T00:26:40;33.70;;;5.57;;
31537;SDS011;18147;51.952;6.146;2022-12-24T00:29:05;44.58;;;6.32;;
31537;SDS011;18147;51.952;6.146;2022-12-24T00:31:31;29.73;;;4.85;;
31537;SDS011;18147;51.952;6.146;2022-12-24T00:33:56;40.70;;;7.47;;
31537;SDS011;18147;51.952;6.146;2022-12-24T00:36:21;40.20;;;5.85;;
31537;SDS011;18147;51.952;6.146;2022-12-24T00:38:47;23.85;;;6.80;;
31537;SDS011;18147;51.952;6.146;2022-12-24T00:41:13;25.48;;;4.75;;
31537;SDS011;18147;51.952;6.146;2022-12-24T00:43:58;24.58;;;4.68;;
31537;SDS011;18147;51.952;6.146;2022-12-24T00:46:25;38.00;;;6.60;;
31537;SDS011;18147;51.952;6.146;2022-12-24T00:48:52;34.28;;;4.93;;
31537;SDS011;18147;51.952;6.146;2022-12-24T00:51:17;33.03;;;5.35;;
31537;SDS011;18147;51.952;6.146;2022-12-24T00:53:43;27.00;;;4.22;;
31537;SDS011;18147;51.952;6.146;2022-12-24T00:56:09;38.17;;;6.20;;
31537;SDS011;18147;51.952;6.146;2022-12-24T00:58:34;33.55;;;6.38;;
31537;SDS011;18147;51.952;6.146;2022-12-24T01:01:00;38.05;;;6.60;;
31537;SDS011;18147;51.952;6.146;2022-12-24T01:03:26;45.53;;;6.30;;
31537;SDS011;18147;51.952;6.146;2022-12-24T01:05:59;35.88;;;7.65;;
31537;SDS011;18147;51.952;6.146;2022-12-24T01:08:27;30.60;;;5.28;;
31537;SDS011;18147;51.952;6.146;2022-12-24T01:10:53;37.13;;;5.40;;
31537;SDS011;18147;51.952;6.146;2022-12-24T01:13:18;41.08;;;7.03;;
31537;SDS011;18147;51.952;6.146;2022-12-24T01:15:44;41.25;;;5.32;;
31537;SDS011;18147;51.952;6.146;2022-12-24T01:18:09;32.40;;;5.72;;
31537;SDS011;18147;51.952;6.146;2022-12-24T01:20:35;68.32;;;7.80;;
31537;SDS011;18147;51.952;6.146;2022-12-24T01:23:00;46.53;;;5.70;;
31537;SDS011;18147;51.952;6.146;2022-12-24T01:25:26;30.58;;;4.65;;
31537;SDS011;18147;51.952;6.146;2022-12-24T01:27:52;32.58;;;6.75;;
31537;SDS011;18147;51.952;6.146;2022-12-24T01:30:17;33.05;;;5.45;;
31537;SDS011;18147;51.952;6.146;2022-12-24T01:32:43;46.30;;;7.30;;
31537;SDS011;18147;51.952;6.146;2022-12-24T01:35:08;51.63;;;7.43;;
31537;SDS011;18147;51.952;6.146;2022-12-24T01:37:34;42.80;;;5.75;;
31537;SDS011;18147;51.952;6.146;2022-12-24T01:40:00;37.97;;;6.28;;
31537;SDS011;18147;51.952;6.146;2022-12-24T01:42:44;48.10;;;6.53;;
31537;SDS011;18147;51.952;6.146;2022-12-24T01:45:48;32.55;;;7.53;;
31537;SDS011;18147;51.952;6.146;2022-12-24T01:48:23;43.78;;;6.05;;
31537;SDS011;18147;51.952;6.146;2022-12-24T01:50:49;51.55;;;8.38;;
31537;SDS011;18147;51.952;6.146;2022-12-24T01:53:20;46.47;;;8.27;;
31537;SDS011;18147;51.952;6.146;2022-12-24T01:55:46;48.90;;;8.13;;
31537;SDS011;18147;51.952;6.146;2022-12-24T01:58:12;37.72;;;7.35;;
31537;SDS011;18147;51.952;6.146;2022-12-24T02:00:40;49.00;;;6.32;;
31537;SDS011;18147;51.952;6.146;2022-12-24T02:03:05;47.80;;;8.25;;
31537;SDS011;18147;51.952;6.146;2022-12-24T02:08:06;55.53;;;6.82;;
31537;SDS011;18147;51.952;6.146;2022-12-24T02:10:32;41.33;;;6.50;;
31537;SDS011;18147;51.952;6.146;2022-12-24T02:12:58;38.97;;;6.95;;
31537;SDS011;18147;51.952;6.146;2022-12-24T02:15:25;50.85;;;7.43;;
31537;SDS011;18147;51.952;6.146;2022-12-24T02:18:04;44.72;;;8.18;;
31537;SDS011;18147;51.952;6.146;2022-12-24T02:24:13;46.05;;;6.88;;
31537;SDS011;18147;51.952;6.146;2022-12-24T02:32:04;33.30;;;5.53;;
31537;SDS011;18147;51.952;6.146;2022-12-24T02:34:44;40.40;;;4.93;;
31537;SDS011;18147;51.952;6.146;2022-12-24T02:37:23;35.67;;;5.35;;
31537;SDS011;18147;51.952;6.146;2022-12-24T02:39:56;39.15;;;5.43;;
31537;SDS011;18147;51.952;6.146;2022-12-24T02:42:31;28.73;;;5.25;;
31537;SDS011;18147;51.952;6.146;2022-12-24T02:45:02;40.97;;;5.63;;
31537;SDS011;18147;51.952;6.146;2022-12-24T02:47:31;46.35;;;6.57;;
31537;SDS011;18147;51.952;6.146;2022-12-24T02:49:59;38.63;;;5.97;;
31537;SDS011;18147;51.952;6.146;2022-12-24T02:52:33;44.90;;;6.68;;
31537;SDS011;18147;51.952;6.146;2022-12-24T02:55:42;33.92;;;7.43;;
31537;SDS011;18147;51.952;6.146;2022-12-24T03:06:11;54.22;;;8.55;;
31537;SDS011;18147;51.952;6.146;2022-12-24T03:08:54;44.13;;;7.00;;
31537;SDS011;18147;51.952;6.146;2022-12-24T03:11:30;36.22;;;5.28;;
31537;SDS011;18147;51.952;6.146;2022-12-24T03:13:57;56.97;;;8.05;;
31537;SDS011;18147;51.952;6.146;2022-12-24T03:16:24;56.30;;;7.97;;
31537;SDS011;18147;51.952;6.146;2022-12-24T03:18:52;46.78;;;5.70;;
31537;SDS011;18147;51.952;6.146;2022-12-24T03:21:21;42.63;;;6.85;;
31537;SDS011;18147;51.952;6.146;2022-12-24T03:23:52;33.53;;;6.07;;
31537;SDS011;18147;51.952;6.146;2022-12-24T03:26:17;42.17;;;5.95;;
31537;SDS011;18147;51.952;6.146;2022-12-24T03:28:44;42.38;;;6.57;;
31537;SDS011;18147;51.952;6.146;2022-12-24T03:31:10;43.90;;;7.25;;
31537;SDS011;18147;51.952;6.146;2022-12-24T03:33:37;37.17;;;5.63;;
31537;SDS011;18147;51.952;6.146;2022-12-24T03:36:03;43.22;;;7.03;;
31537;SDS011;18147;51.952;6.146;2022-12-24T03:38:30;39.53;;;7.53;;
31537;SDS011;18147;51.952;6.146;2022-12-24T03:40:55;41.53;;;6.55;;
31537;SDS011;18147;51.952;6.146;2022-12-24T03:43:21;33.15;;;5.97;;
31537;SDS011;18147;51.952;6.146;2022-12-24T03:45:46;40.90;;;5.85;;
31537;SDS011;18147;51.952;6.146;2022-12-24T03:48:12;43.90;;;6.28;;
31537;SDS011;18147;51.952;6.146;2022-12-24T03:50:37;49.95;;;8.05;;
31537;SDS011;18147;51.952;6.146;2022-12-24T03:53:03;49.38;;;6.60;;
31537;SDS011;18147;51.952;6.146;2022-12-24T03:55:28;55.20;;;8.98;;
31537;SDS011;18147;51.952;6.146;2022-12-24T03:57:54;47.63;;;7.47;;
31537;SDS011;18147;51.952;6.146;2022-12-24T04:00:19;43.17;;;7.72;;
31537;SDS011;18147;51.952;6.146;2022-12-24T04:02:45;44.90;;;7.28;;
31537;SDS011;18147;51.952;6.146;2022-12-24T04:05:15;55.20;;;6.70;;
31537;SDS011;18147;51.952;6.146;2022-12-24T04:07:42;45.57;;;7.80;;
31537;SDS011;18147;51.952;6.146;2022-12-24T04:10:08;36.42;;;7.15;;
31537;SDS011;18147;51.952;6.146;2022-12-24T04:12:34;42.90;;;6.38;;
31537;SDS011;18147;51.952;6.146;2022-12-24T04:15:00;62.55;;;9.70;;
31537;SDS011;18147;51.952;6.146;2022-12-24T04:17:25;50.83;;;7.65;;
31537;SDS011;18147;51.952;6.146;2022-12-24T04:19:53;37.70;;;8.27;;
31537;SDS011;18147;51.952;6.146;2022-12-24T04:22:18;44.08;;;8.88;;
31537;SDS011;18147;51.952;6.146;2022-12-24T04:24:44;39.28;;;8.57;;
31537;SDS011;18147;51.952;6.146;2022-12-24T04:27:09;69.97;;;11.65;;
31537;SDS011;18147;51.952;6.146;2022-12-24T04:29:37;54.60;;;7.93;;
31537;SDS011;18147;51.952;6.146;2022-12-24T04:32:02;48.15;;;9.48;;
31537;SDS011;18147;51.952;6.146;2022-12-24T04:34:28;51.10;;;9.05;;
31537;SDS011;18147;51.952;6.146;2022-12-24T04:36:53;46.60;;;7.25;;
31537;SDS011;18147;51.952;6.146;2022-12-24T04:39:19;49.65;;;10.35;;
31537;SDS011;18147;51.952;6.146;2022-12-24T04:41:44;45.05;;;8.23;;
31537;SDS011;18147;51.952;6.146;2022-12-24T04:44:10;46.10;;;7.50;;
31537;SDS011;18147;51.952;6.146;2022-12-24T04:46:35;44.35;;;7.43;;
31537;SDS011;18147;51.952;6.146;2022-12-24T04:49:00;59.83;;;9.18;;
31537;SDS011;18147;51.952;6.146;2022-12-24T04:51:26;47.95;;;8.32;;
31537;SDS011;18147;51.952;6.146;2022-12-24T04:53:52;48.50;;;8.52;;
31537;SDS011;18147;51.952;6.146;2022-12-24T04:56:19;49.65;;;8.43;;
31537;SDS011;18147;51.952;6.146;2022-12-24T04:58:47;43.25;;;8.50;;
31537;SDS011;18147;51.952;6.146;2022-12-24T05:01:13;59.45;;;10.50;;
31537;SDS011;18147;51.952;6.146;2022-12-24T05:03:42;62.28;;;8.00;;
31537;SDS011;18147;51.952;6.146;2022-12-24T05:06:08;51.97;;;10.02;;
31537;SDS011;18147;51.952;6.146;2022-12-24T05:08:37;34.20;;;8.13;;
31537;SDS011;18147;51.952;6.146;2022-12-24T05:11:03;41.67;;;8.27;;
31537;SDS011;18147;51.952;6.146;2022-12-24T05:13:29;43.63;;;9.73;;
31537;SDS011;18147;51.952;6.146;2022-12-24T05:15:55;51.42;;;8.20;;
31537;SDS011;18147;51.952;6.146;2022-12-24T05:18:21;58.75;;;9.23;;
31537;SDS011;18147;51.952;6.146;2022-12-24T05:20:47;43.05;;;7.15;;
31537;SDS011;18147;51.952;6.146;2022-12-24T05:23:17;34.83;;;9.02;;
31537;SDS011;18147;51.952;6.146;2022-12-24T05:26:03;38.75;;;8.32;;
31537;SDS011;18147;51.952;6.146;2022-12-24T05:28:49;58.63;;;9.45;;
31537;SDS011;18147;51.952;6.146;2022-12-24T05:31:24;50.13;;;8.93;;
31537;SDS011;18147;51.952;6.146;2022-12-24T05:33:51;49.85;;;9.40;;
31537;SDS011;18147;51.952;6.146;2022-12-24T05:36:18;44.40;;;8.15;;
31537;SDS011;18147;51.952;6.146;2022-12-24T05:38:44;40.55;;;7.95;;
31537;SDS011;18147;51.952;6.146;2022-12-24T05:41:09;51.92;;;12.02;;
31537;SDS011;18147;51.952;6.146;2022-12-24T05:43:35;51.38;;;7.80;;
31537;SDS011;18147;51.952;6.146;2022-12-24T05:46:04;40.15;;;7.10;;
31537;SDS011;18147;51.952;6.146;2022-12-24T05:48:32;38.65;;;10.07;;
31537;SDS011;18147;51.952;6.146;2022-12-24T05:50:58;43.88;;;9.35;;
31537;SDS011;18147;51.952;6.146;2022-12-24T05:53:27;50.53;;;9.20;;
31537;SDS011;18147;51.952;6.146;2022-12-24T05:55:52;44.40;;;9.98;;
31537;SDS011;18147;51.952;6.146;2022-12-24T05:58:18;49.08;;;8.13;;
31537;SDS011;18147;51.952;6.146;2022-12-24T06:00:43;43.25;;;8.98;;
31537;SDS011;18147;51.952;6.146;2022-12-24T06:03:09;62.80;;;12.77;;
31537;SDS011;18147;51.952;6.146;2022-12-24T06:05:34;49.05;;;10.57;;
31537;SDS011;18147;51.952;6.146;2022-12-24T06:08:00;42.70;;;8.10;;
31537;SDS011;18147;51.952;6.146;2022-12-24T06:10:25;61.08;;;10.15;;
31537;SDS011;18147;51.952;6.146;2022-12-24T06:12:50;38.92;;;6.82;;
31537;SDS011;18147;51.952;6.146;2022-12-24T06:15:16;36.45;;;7.70;;
31537;SDS011;18147;51.952;6.146;2022-12-24T06:17:41;59.28;;;8.77;;
31537;SDS011;18147;51.952;6.146;2022-12-24T06:20:07;50.55;;;10.55;;
31537;SDS011;18147;51.952;6.146;2022-12-24T06:22:32;53.40;;;9.70;;
31537;SDS011;18147;51.952;6.146;2022-12-24T06:24:58;49.13;;;8.77;;
31537;SDS011;18147;51.952;6.146;2022-12-24T06:27:23;58.72;;;11.68;;
31537;SDS011;18147;51.952;6.146;2022-12-24T06:29:49;38.65;;;8.30;;
31537;SDS011;18147;51.952;6.146;2022-12-24T06:32:14;41.08;;;8.55;;
31537;SDS011;18147;51.952;6.146;2022-12-24T06:34:40;47.42;;;7.72;;
31537;SDS011;18147;51.952;6.146;2022-12-24T06:37:05;58.53;;;10.63;;
31537;SDS011;18147;51.952;6.146;2022-12-24T06:39:31;53.53;;;8.00;;
31537;SDS011;18147;51.952;6.146;2022-12-24T06:41:56;38.88;;;7.32;;
31537;SDS011;18147;51.952;6.146;2022-12-24T06:44:22;50.72;;;7.00;;
31537;SDS011;18147;51.952;6.146;2022-12-24T06:46:47;40.45;;;8.77;;
31537;SDS011;18147;51.952;6.146;2022-12-24T06:49:13;70.75;;;9.27;;
31537;SDS011;18147;51.952;6.146;2022-12-24T06:51:38;54.53;;;7.10;;
31537;SDS011;18147;51.952;6.146;2022-12-24T06:54:04;53.50;;;9.52;;
31537;SDS011;18147;51.952;6.146;2022-12-24T06:56:29;59.55;;;9.48;;
31537;SDS011;18147;51.952;6.146;2022-12-24T06:58:55;37.58;;;8.68;;
31537;SDS011;18147;51.952;6.146;2022-12-24T07:01:20;35.13;;;7.55;;
31537;SDS011;18147;51.952;6.146;2022-12-24T07:03:48;43.75;;;9.32;;
31537;SDS011;18147;51.952;6.146;2022-12-24T07:06:16;40.25;;;8.07;;
31537;SDS011;18147;51.952;6.146;2022-12-24T07:08:49;43.08;;;9.57;;
31537;SDS011;18147;51.952;6.146;2022-12-24T07:11:15;53.67;;;12.05;;
31537;SDS011;18147;51.952;6.146;2022-12-24T07:13:41;40.78;;;9.05;;
31537;SDS011;18147;51.952;6.146;2022-12-24T07:16:06;52.22;;;8.38;;
31537;SDS011;18147;51.952;6.146;2022-12-24T07:18:32;43.83;;;7.40;;
31537;SDS011;18147;51.952;6.146;2022-12-24T07:20:57;48.95;;;9.40;;
31537;SDS011;18147;51.952;6.146;2022-12-24T07:23:23;42.92;;;9.13;;
31537;SDS011;18147;51.952;6.146;2022-12-24T07:25:49;52.53;;;8.50;;
31537;SDS011;18147;51.952;6.146;2022-12-24T07:28:15;37.35;;;8.70;;
31537;SDS011;18147;51.952;6.146;2022-12-24T07:30:40;37.45;;;8.80;;
31537;SDS011;18147;51.952;6.146;2022-12-24T07:33:06;55.78;;;10.00;;
31537;SDS011;18147;51.952;6.146;2022-12-24T07:35:32;37.03;;;8.73;;
31537;SDS011;18147;51.952;6.146;2022-12-24T07:37:58;37.03;;;8.77;;
31537;SDS011;18147;51.952;6.146;2022-12-24T07:40:23;53.67;;;8.82;;
31537;SDS011;18147;51.952;6.146;2022-12-24T07:42:49;60.08;;;10.18;;
31537;SDS011;18147;51.952;6.146;2022-12-24T07:45:15;54.47;;;10.23;;
31537;SDS011;18147;51.952;6.146;2022-12-24T07:47:41;41.47;;;6.95;;
31537;SDS011;18147;51.952;6.146;2022-12-24T07:50:06;57.78;;;8.77;;
31537;SDS011;18147;51.952;6.146;2022-12-24T07:52:32;45.47;;;8.07;;
31537;SDS011;18147;51.952;6.146;2022-12-24T07:54:57;48.10;;;10.13;;
31537;SDS011;18147;51.952;6.146;2022-12-24T07:57:23;45.55;;;8.30;;
31537;SDS011;18147;51.952;6.146;2022-12-24T07:59:48;51.03;;;8.60;;
31537;SDS011;18147;51.952;6.146;2022-12-24T08:02:14;39.90;;;7.30;;
31537;SDS011;18147;51.952;6.146;2022-12-24T08:04:39;50.50;;;9.68;;
31537;SDS011;18147;51.952;6.146;2022-12-24T08:07:05;45.80;;;8.07;;
31537;SDS011;18147;51.952;6.146;2022-12-24T08:09:32;47.08;;;8.38;;
31537;SDS011;18147;51.952;6.146;2022-12-24T08:11:58;61.67;;;9.27;;
31537;SDS011;18147;51.952;6.146;2022-12-24T08:14:24;51.17;;;9.20;;
31537;SDS011;18147;51.952;6.146;2022-12-24T08:16:49;36.28;;;7.20;;
31537;SDS011;18147;51.952;6.146;2022-12-24T08:19:15;56.05;;;8.57;;
31537;SDS011;18147;51.952;6.146;2022-12-24T08:21:40;45.47;;;7.97;;
31537;SDS011;18147;51.952;6.146;2022-12-24T08:24:06;49.17;;;7.85;;
31537;SDS011;18147;51.952;6.146;2022-12-24T08:26:32;48.35;;;8.60;;
31537;SDS011;18147;51.952;6.146;2022-12-24T08:28:57;51.65;;;8.25;;
31537;SDS011;18147;51.952;6.146;2022-12-24T08:31:23;53.40;;;8.57;;
31537;SDS011;18147;51.952;6.146;2022-12-24T08:33:48;41.55;;;7.13;;
31537;SDS011;18147;51.952;6.146;2022-12-24T08:36:14;30.25;;;7.38;;
31537;SDS011;18147;51.952;6.146;2022-12-24T08:38:39;42.63;;;8.20;;
31537;SDS011;18147;51.952;6.146;2022-12-24T08:41:05;50.58;;;9.45;;
31537;SDS011;18147;51.952;6.146;2022-12-24T08:43:30;48.38;;;7.72;;
31537;SDS011;18147;51.952;6.146;2022-12-24T08:45:59;42.65;;;8.93;;
31537;SDS011;18147;51.952;6.146;2022-12-24T08:48:26;32.92;;;7.57;;
31537;SDS011;18147;51.952;6.146;2022-12-24T08:50:51;48.55;;;7.53;;
31537;SDS011;18147;51.952;6.146;2022-12-24T08:53:17;45.97;;;10.40;;
31537;SDS011;18147;51.952;6.146;2022-12-24T08:55:42;51.13;;;8.02;;
31537;SDS011;18147;51.952;6.146;2022-12-24T08:58:08;50.97;;;8.25;;
31537;SDS011;18147;51.952;6.146;2022-12-24T09:00:33;45.88;;;7.65;;
31537;SDS011;18147;51.952;6.146;2022-12-24T09:02:59;54.55;;;9.13;;
31537;SDS011;18147;51.952;6.146;2022-12-24T09:05:24;38.78;;;8.30;;
31537;SDS011;18147;51.952;6.146;2022-12-24T09:07:50;48.72;;;9.35;;
31537;SDS011;18147;51.952;6.146;2022-12-24T09:10:15;52.42;;;9.93;;
31537;SDS011;18147;51.952;6.146;2022-12-24T09:12:41;66.70;;;10.57;;
31537;SDS011;18147;51.952;6.146;2022-12-24T09:15:08;42.17;;;8.20;;
31537;SDS011;18147;51.952;6.146;2022-12-24T09:17:34;45.92;;;8.55;;
31537;SDS011;18147;51.952;6.146;2022-12-24T09:20:00;60.70;;;10.68;;
31537;SDS011;18147;51.952;6.146;2022-12-24T09:22:26;43.95;;;11.20;;
31537;SDS011;18147;51.952;6.146;2022-12-24T09:24:54;43.60;;;9.05;;
31537;SDS011;18147;51.952;6.146;2022-12-24T09:27:20;54.17;;;10.40;;
31537;SDS011;18147;51.952;6.146;2022-12-24T09:29:45;55.92;;;9.93;;
31537;SDS011;18147;51.952;6.146;2022-12-24T09:32:14;45.65;;;10.00;;
31537;SDS011;18147;51.952;6.146;2022-12-24T09:34:39;42.03;;;10.02;;
31537;SDS011;18147;51.952;6.146;2022-12-24T09:37:05;44.58;;;10.23;;
31537;SDS011;18147;51.952;6.146;2022-12-24T09:39:30;41.50;;;10.65;;
31537;SDS011;18147;51.952;6.146;2022-12-24T09:42:06;53.08;;;9.02;;
31537;SDS011;18147;51.952;6.146;2022-12-24T09:45:00;46.03;;;9.45;;
31537;SDS011;18147;51.952;6.146;2022-12-24T09:53:01;41.85;;;10.25;;
31537;SDS011;18147;51.952;6.146;2022-12-24T09:55:33;42.83;;;9.10;;
31537;SDS011;18147;51.952;6.146;2022-12-24T09:58:04;45.28;;;9.40;;
31537;SDS011;18147;51.952;6.146;2022-12-24T10:00:36;45.33;;;8.82;;
31537;SDS011;18147;51.952;6.146;2022-12-24T10:03:09;54.60;;;12.55;;
31537;SDS011;18147;51.952;6.146;2022-12-24T10:05:42;46.63;;;9.77;;
31537;SDS011;18147;51.952;6.146;2022-12-24T10:10:58;42.95;;;10.68;;
31537;SDS011;18147;51.952;6.146;2022-12-24T10:19:12;49.77;;;10.00;;
31537;SDS011;18147;51.952;6.146;2022-12-24T10:24:15;46.08;;;10.52;;
31537;SDS011;18147;51.952;6.146;2022-12-24T10:26:56;42.25;;;9.27;;
31537;SDS011;18147;51.952;6.146;2022-12-24T10:29:28;35.13;;;8.05;;
31537;SDS011;18147;51.952;6.146;2022-12-24T10:34:43;47.88;;;8.85;;
31537;SDS011;18147;51.952;6.146;2022-12-24T10:37:14;56.30;;;9.48;;
31537;SDS011;18147;51.952;6.146;2022-12-24T10:39:44;41.35;;;7.95;;
31537;SDS011;18147;51.952;6.146;2022-12-24T10:42:10;50.15;;;10.38;;
31537;SDS011;18147;51.952;6.146;2022-12-24T10:44:38;44.90;;;9.40;;
31537;SDS011;18147;51.952;6.146;2022-12-24T10:47:05;39.63;;;8.05;;
31537;SDS011;18147;51.952;6.146;2022-12-24T10:49:36;41.90;;;8.32;;
31537;SDS011;18147;51.952;6.146;2022-12-24T10:52:10;38.90;;;8.38;;
31537;SDS011;18147;51.952;6.146;2022-12-24T10:54:39;32.25;;;7.35;;
31537;SDS011;18147;51.952;6.146;2022-12-24T10:57:35;41.28;;;7.78;;
31537;SDS011;18147;51.952;6.146;2022-12-24T11:00:01;46.67;;;8.18;;
31537;SDS011;18147;51.952;6.146;2022-12-24T11:02:28;47.80;;;8.35;;
31537;SDS011;18147;51.952;6.146;2022-12-24T11:04:56;39.30;;;7.10;;
31537;SDS011;18147;51.952;6.146;2022-12-24T11:07:24;37.70;;;7.93;;
31537;SDS011;18147;51.952;6.146;2022-12-24T11:12:31;47.63;;;10.93;;
31537;SDS011;18147;51.952;6.146;2022-12-24T11:17:58;45.40;;;7.45;;
31537;SDS011;18147;51.952;6.146;2022-12-24T11:20:28;45.47;;;10.30;;
31537;SDS011;18147;51.952;6.146;2022-12-24T11:22:55;58.55;;;9.45;;
31537;SDS011;18147;51.952;6.146;2022-12-24T11:28:11;44.85;;;9.07;;
31537;SDS011;18147;51.952;6.146;2022-12-24T11:30:37;42.58;;;8.30;;
31537;SDS011;18147;51.952;6.146;2022-12-24T11:35:29;38.05;;;8.20;;
31537;SDS011;18147;51.952;6.146;2022-12-24T11:40:42;40.95;;;7.88;;
31537;SDS011;18147;51.952;6.146;2022-12-24T11:43:16;45.28;;;8.32;;
31537;SDS011;18147;51.952;6.146;2022-12-24T11:45:48;32.35;;;6.72;;
31537;SDS011;18147;51.952;6.146;2022-12-24T11:48:29;35.70;;;7.63;;
31537;SDS011;18147;51.952;6.146;2022-12-24T11:51:00;27.70;;;6.75;;
31537;SDS011;18147;51.952;6.146;2022-12-24T11:56:26;46.05;;;9.27;;
31537;SDS011;18147;51.952;6.146;2022-12-24T11:59:06;40.22;;;8.50;;
31537;SDS011;18147;51.952;6.146;2022-12-24T12:01:53;37.22;;;6.65;;
31537;SDS011;18147;51.952;6.146;2022-12-24T12:04:42;38.97;;;7.57;;
31537;SDS011;18147;51.952;6.146;2022-12-24T12:07:21;45.22;;;6.50;;
31537;SDS011;18147;51.952;6.146;2022-12-24T12:09:51;49.00;;;7.47;;
31537;SDS011;18147;51.952;6.146;2022-12-24T12:12:25;29.55;;;5.55;;
31537;SDS011;18147;51.952;6.146;2022-12-24T12:20:34;41.42;;;7.15;;
31537;SDS011;18147;51.952;6.146;2022-12-24T12:23:16;34.40;;;6.45;;
31537;SDS011;18147;51.952;6.146;2022-12-24T12:28:33;41.13;;;6.85;;
31537;SDS011;18147;51.952;6.146;2022-12-24T12:33:33;41.67;;;6.30;;
31537;SDS011;18147;51.952;6.146;2022-12-24T12:36:03;32.33;;;6.78;;
31537;SDS011;18147;51.952;6.146;2022-12-24T12:38:31;49.75;;;7.18;;
31537;SDS011;18147;51.952;6.146;2022-12-24T12:46:27;32.28;;;5.90;;
31537;SDS011;18147;51.952;6.146;2022-12-24T12:51:36;31.50;;;6.20;;
31537;SDS011;18147;51.952;6.146;2022-12-24T12:54:34;22.67;;;5.15;;
31537;SDS011;18147;51.952;6.146;2022-12-24T12:57:19;23.47;;;5.47;;
31537;SDS011;18147;51.952;6.146;2022-12-24T12:59:52;31.42;;;6.00;;
31537;SDS011;18147;51.952;6.146;2022-12-24T13:11:30;36.40;;;5.25;;
31537;SDS011;18147;51.952;6.146;2022-12-24T13:20:28;43.63;;;5.70;;
31537;SDS011;18147;51.952;6.146;2022-12-24T13:23:07;26.58;;;5.45;;
31537;SDS011;18147;51.952;6.146;2022-12-24T13:25:45;27.48;;;5.50;;
31537;SDS011;18147;51.952;6.146;2022-12-24T13:36:11;38.97;;;5.65;;
31537;SDS011;18147;51.952;6.146;2022-12-24T13:38:45;19.45;;;5.00;;
31537;SDS011;18147;51.952;6.146;2022-12-24T13:49:40;23.15;;;5.32;;
31537;SDS011;18147;51.952;6.146;2022-12-24T13:54:36;33.72;;;7.20;;
31537;SDS011;18147;51.952;6.146;2022-12-24T13:57:20;20.40;;;5.72;;
31537;SDS011;18147;51.952;6.146;2022-12-24T13:59:55;24.60;;;5.72;;
31537;SDS011;18147;51.952;6.146;2022-12-24T14:02:23;33.33;;;5.72;;
31537;SDS011;18147;51.952;6.146;2022-12-24T14:04:59;23.42;;;6.75;;
31537;SDS011;18147;51.952;6.146;2022-12-24T14:07:29;27.73;;;5.43;;
31537;SDS011;18147;51.952;6.146;2022-12-24T14:09:55;34.03;;;6.03;;
31537;SDS011;18147;51.952;6.146;2022-12-24T14:18:15;27.95;;;5.70;;
31537;SDS011;18147;51.952;6.146;2022-12-24T14:24:00;33.05;;;6.22;;
31537;SDS011;18147;51.952;6.146;2022-12-24T14:26:52;35.75;;;6.88;;
31537;SDS011;18147;51.952;6.146;2022-12-24T14:32:07;25.63;;;5.90;;
31537;SDS011;18147;51.952;6.146;2022-12-24T14:34:37;28.50;;;5.53;;
31537;SDS011;18147;51.952;6.146;2022-12-24T14:37:03;26.23;;;5.22;;
31537;SDS011;18147;51.952;6.146;2022-12-24T14:39:35;29.00;;;5.63;;
31537;SDS011;18147;51.952;6.146;2022-12-24T14:47:42;32.15;;;6.40;;
31537;SDS011;18147;51.952;6.146;2022-12-24T14:50:24;35.58;;;8.68;;
31537;SDS011;18147;51.952;6.146;2022-12-24T14:55:52;26.48;;;5.70;;
31537;SDS011;18147;51.952;6.146;2022-12-24T14:58:25;41.65;;;7.22;;
31537;SDS011;18147;51.952;6.146;2022-12-24T15:00:51;29.85;;;5.80;;
31537;SDS011;18147;51.952;6.146;2022-12-24T15:03:20;30.92;;;5.38;;
31537;SDS011;18147;51.952;6.146;2022-12-24T15:06:01;26.33;;;5.93;;
31537;SDS011;18147;51.952;6.146;2022-12-24T15:11:06;35.15;;;5.78;;
31537;SDS011;18147;51.952;6.146;2022-12-24T15:13:37;29.65;;;7.10;;
31537;SDS011;18147;51.952;6.146;2022-12-24T15:16:12;23.38;;;5.72;;
31537;SDS011;18147;51.952;6.146;2022-12-24T15:18:46;45.83;;;8.15;;
31537;SDS011;18147;51.952;6.146;2022-12-24T15:21:17;29.65;;;6.55;;
31537;SDS011;18147;51.952;6.146;2022-12-24T15:28:44;35.25;;;6.07;;
31537;SDS011;18147;51.952;6.146;2022-12-24T15:31:11;32.50;;;8.38;;
31537;SDS011;18147;51.952;6.146;2022-12-24T15:33:39;38.75;;;9.32;;
31537;SDS011;18147;51.952;6.146;2022-12-24T15:36:05;43.20;;;8.10;;
31537;SDS011;18147;51.952;6.146;2022-12-24T15:38:33;37.28;;;8.73;;
31537;SDS011;18147;51.952;6.146;2022-12-24T15:41:03;32.53;;;8.18;;
31537;SDS011;18147;51.952;6.146;2022-12-24T15:43:38;27.17;;;8.80;;
31537;SDS011;18147;51.952;6.146;2022-12-24T15:46:05;33.22;;;9.05;;
31537;SDS011;18147;51.952;6.146;2022-12-24T15:48:30;37.72;;;6.88;;
31537;SDS011;18147;51.952;6.146;2022-12-24T15:50:57;37.53;;;7.30;;
31537;SDS011;18147;51.952;6.146;2022-12-24T15:56:00;45.83;;;8.63;;
31537;SDS011;18147;51.952;6.146;2022-12-24T15:58:40;47.25;;;8.95;;
31537;SDS011;18147;51.952;6.146;2022-12-24T16:03:32;44.95;;;9.18;;
31537;SDS011;18147;51.952;6.146;2022-12-24T16:06:03;32.33;;;9.00;;
31537;SDS011;18147;51.952;6.146;2022-12-24T16:08:33;38.08;;;8.73;;
31537;SDS011;18147;51.952;6.146;2022-12-24T16:11:07;40.00;;;8.60;;
31537;SDS011;18147;51.952;6.146;2022-12-24T16:16:10;48.22;;;9.02;;
31537;SDS011;18147;51.952;6.146;2022-12-24T16:18:39;46.25;;;7.63;;
31537;SDS011;18147;51.952;6.146;2022-12-24T16:21:19;37.63;;;8.65;;
31537;SDS011;18147;51.952;6.146;2022-12-24T16:23:49;34.88;;;8.15;;
31537;SDS011;18147;51.952;6.146;2022-12-24T16:26:18;51.13;;;13.00;;
31537;SDS011;18147;51.952;6.146;2022-12-24T16:28:44;38.03;;;9.98;;
31537;SDS011;18147;51.952;6.146;2022-12-24T16:31:27;40.22;;;11.80;;
31537;SDS011;18147;51.952;6.146;2022-12-24T16:33:56;32.15;;;7.80;;
31537;SDS011;18147;51.952;6.146;2022-12-24T16:36:22;51.30;;;10.35;;
31537;SDS011;18147;51.952;6.146;2022-12-24T16:38:48;36.35;;;8.15;;
31537;SDS011;18147;51.952;6.146;2022-12-24T16:41:32;42.33;;;9.23;;
31537;SDS011;18147;51.952;6.146;2022-12-24T16:47:12;32.38;;;11.25;;
31537;SDS011;18147;51.952;6.146;2022-12-24T16:49:43;47.42;;;9.05;;
31537;SDS011;18147;51.952;6.146;2022-12-24T16:52:29;40.92;;;9.40;;
31537;SDS011;18147;51.952;6.146;2022-12-24T16:55:00;35.13;;;10.77;;
31537;SDS011;18147;51.952;6.146;2022-12-24T16:57:26;38.13;;;10.32;;
31537;SDS011;18147;51.952;6.146;2022-12-24T16:59:52;37.05;;;10.48;;
31537;SDS011;18147;51.952;6.146;2022-12-24T17:02:19;41.92;;;9.93;;
31537;SDS011;18147;51.952;6.146;2022-12-24T17:04:46;36.63;;;12.45;;
31537;SDS011;18147;51.952;6.146;2022-12-24T17:07:13;37.40;;;8.80;;
31537;SDS011;18147;51.952;6.146;2022-12-24T17:09:40;39.22;;;9.95;;
31537;SDS011;18147;51.952;6.146;2022-12-24T17:12:06;49.72;;;11.27;;